createdAt,value
2018-05-21T00:00:09.920Z,99.90
2018-05-21T00:02:37.426Z,99.90
2018-05-21T00:05:05.702Z,99.90
2018-05-21T00:07:33.972Z,99.90
2018-05-21T00:10:02.282Z,99.90
2018-05-21T00:12:29.813Z,99.90
2018-05-21T00:14:58.100Z,99.90
2018-05-21T00:17:25.641Z,99.90
2018-05-21T00:19:53.913Z,99.90
2018-05-21T00:22:22.187Z,99.90
2018-05-21T00:24:50.501Z,99.90
2018-05-21T00:27:18.037Z,99.90
2018-05-21T00:29:45.567Z,99.90
2018-05-21T00:32:13.091Z,99.90
2018-05-21T00:34:40.606Z,99.90
2018-05-21T00:37:08.119Z,99.90
2018-05-21T00:39:35.612Z,99.90
2018-05-21T00:42:03.986Z,99.90
2018-05-21T00:44:32.266Z,99.90
2018-05-21T00:47:00.547Z,99.90
2018-05-21T00:49:28.110Z,99.90
2018-05-21T00:51:55.618Z,99.90
2018-05-21T00:54:23.151Z,99.90
2018-05-21T00:56:50.705Z,99.90
2018-05-21T00:59:18.212Z,99.90
2018-05-21T01:01:45.754Z,99.90
2018-05-21T01:04:13.289Z,99.90
2018-05-21T01:06:40.796Z,99.90
2018-05-21T01:09:09.080Z,99.90
2018-05-21T01:11:36.649Z,99.90
2018-05-21T01:14:04.164Z,99.90
2018-05-21T01:16:31.750Z,99.90
2018-05-21T01:19:00.042Z,99.90
2018-05-21T01:21:27.561Z,99.90
2018-05-21T01:23:55.084Z,99.90
2018-05-21T01:26:22.593Z,99.90
2018-05-21T01:28:50.848Z,99.90
2018-05-21T01:31:18.374Z,99.90
2018-05-21T01:33:45.888Z,99.90
2018-05-21T01:36:13.464Z,99.90
2018-05-21T01:38:40.963Z,99.90
2018-05-21T01:41:08.556Z,99.90
2018-05-21T01:43:36.843Z,99.90
2018-05-21T01:46:04.338Z,99.90
2018-05-21T01:48:31.830Z,99.90
2018-05-21T01:51:00.193Z,99.90
2018-05-21T01:53:27.796Z,99.90
2018-05-21T01:55:55.318Z,99.90
2018-05-21T01:58:23.605Z,99.90
2018-05-21T02:00:51.870Z,99.90
2018-05-21T02:03:20.180Z,99.90
2018-05-21T02:05:47.680Z,99.90
2018-05-21T02:08:15.241Z,99.90
2018-05-21T02:10:42.757Z,99.90
2018-05-21T02:13:10.276Z,99.90
2018-05-21T02:15:38.535Z,99.90
2018-05-21T02:18:06.041Z,99.90
2018-05-21T02:20:34.360Z,99.90
2018-05-21T02:23:01.855Z,99.90
2018-05-21T02:25:29.348Z,99.90
2018-05-21T02:27:56.876Z,99.90
2018-05-21T02:30:24.402Z,99.90
2018-05-21T02:32:52.005Z,99.90
2018-05-21T02:35:19.558Z,99.90
2018-05-21T02:37:47.050Z,99.90
2018-05-21T02:40:14.576Z,99.90
2018-05-21T02:42:42.078Z,99.90
2018-05-21T02:45:09.602Z,99.90
2018-05-21T02:47:37.111Z,99.90
2018-05-21T02:50:05.396Z,99.90
2018-05-21T02:52:33.669Z,99.90
2018-05-21T02:55:01.981Z,99.90
2018-05-21T02:57:29.537Z,99.90
2018-05-21T02:59:57.077Z,99.90
2018-05-21T03:02:24.604Z,99.90
2018-05-21T03:04:52.858Z,99.90
2018-05-21T03:07:20.388Z,99.90
2018-05-21T03:09:47.922Z,99.90
2018-05-21T03:12:15.458Z,99.90
2018-05-21T03:14:43.717Z,99.90
2018-05-21T03:17:11.233Z,99.90
2018-05-21T03:19:38.772Z,99.90
2018-05-21T03:22:06.291Z,99.90
2018-05-21T03:24:33.807Z,99.90
2018-05-21T03:27:01.329Z,99.90
2018-05-21T03:29:28.912Z,99.90
2018-05-21T03:31:56.445Z,99.90
2018-05-21T03:34:23.988Z,99.90
2018-05-21T03:36:52.268Z,99.90
2018-05-21T03:39:20.577Z,99.90
2018-05-21T03:41:48.098Z,99.90
2018-05-21T03:44:16.377Z,99.90
2018-05-21T03:46:44.652Z,99.90
2018-05-21T03:49:12.923Z,99.90
2018-05-21T03:51:41.211Z,99.90
2018-05-21T03:54:08.893Z,99.90
2018-05-21T03:56:36.419Z,99.90
2018-05-21T03:59:16.550Z,99.90
2018-05-21T04:01:56.905Z,99.90
2018-05-21T04:04:24.409Z,99.90
2018-05-21T04:06:51.961Z,99.90
2018-05-21T04:09:19.476Z,99.90
2018-05-21T04:11:46.986Z,99.90
2018-05-21T04:14:14.496Z,99.90
2018-05-21T04:16:42.019Z,99.90
2018-05-21T04:19:09.548Z,99.90
2018-05-21T04:21:37.082Z,99.90
2018-05-21T04:24:05.356Z,99.90
2018-05-21T04:26:33.659Z,99.90
2018-05-21T04:29:01.241Z,99.90
2018-05-21T04:31:29.308Z,99.90
2018-05-21T04:33:56.827Z,99.90
2018-05-21T04:36:24.345Z,99.90
2018-05-21T04:38:51.857Z,99.90
2018-05-21T04:41:19.378Z,99.90
2018-05-21T04:43:47.658Z,99.90
2018-05-21T04:46:15.927Z,99.90
2018-05-21T04:48:44.207Z,99.90
2018-05-21T04:51:12.489Z,99.90
2018-05-21T04:53:40.758Z,99.90
2018-05-21T04:56:09.153Z,99.90
2018-05-21T04:58:36.670Z,99.90
2018-05-21T05:01:04.193Z,99.90
2018-05-21T05:03:31.746Z,99.90
2018-05-21T05:05:59.281Z,99.90
2018-05-21T05:08:26.841Z,99.90
2018-05-21T05:10:54.406Z,99.90
2018-05-21T05:13:21.898Z,99.90
2018-05-21T05:15:49.398Z,99.90
2018-05-21T05:18:17.670Z,99.90
2018-05-21T05:20:45.981Z,99.90
2018-05-21T05:23:13.490Z,99.90
2018-05-21T05:25:40.996Z,99.90
2018-05-21T05:28:08.546Z,99.30
2018-05-21T05:30:36.084Z,98.80
2018-05-21T05:33:03.609Z,98.20
2018-05-21T05:35:31.128Z,96.70
2018-05-21T05:37:58.673Z,97.90
2018-05-21T05:40:26.289Z,98.60
2018-05-21T05:42:53.816Z,97.60
2018-05-21T05:45:21.328Z,97.40
2018-05-21T05:47:48.941Z,97.20
2018-05-21T05:50:16.462Z,97.40
2018-05-21T05:52:43.996Z,96.90
2018-05-21T05:55:12.256Z,94.70
2018-05-21T05:57:39.805Z,94.70
2018-05-21T06:00:07.315Z,93.70
2018-05-21T06:02:34.836Z,93.20
2018-05-21T06:05:03.128Z,94.90
2018-05-21T06:07:30.648Z,94.90
2018-05-21T06:09:58.161Z,94.40
2018-05-21T06:12:25.671Z,94.00
2018-05-21T06:14:53.967Z,92.50
2018-05-21T06:17:21.562Z,92.50
2018-05-21T06:19:49.121Z,92.80
2018-05-21T06:22:16.632Z,92.40
2018-05-21T06:24:44.924Z,92.40
2018-05-21T06:27:12.446Z,92.40
2018-05-21T06:29:39.973Z,93.20
2018-05-21T06:32:07.610Z,93.90
2018-05-21T06:34:35.138Z,95.10
2018-05-21T06:37:02.630Z,95.40
2018-05-21T06:39:30.184Z,95.30
2018-05-21T06:41:57.684Z,95.60
2018-05-21T06:44:25.214Z,96.00
2018-05-21T06:46:52.706Z,96.30
2018-05-21T06:49:20.306Z,96.30
2018-05-21T06:51:47.816Z,97.30
2018-05-21T06:54:15.334Z,96.80
2018-05-21T06:56:42.858Z,96.90
2018-05-21T06:59:10.356Z,96.60
2018-05-21T07:01:37.873Z,96.60
2018-05-21T07:04:05.449Z,97.00
2018-05-21T07:06:33.023Z,96.20
2018-05-21T07:09:00.553Z,97.10
2018-05-21T07:11:28.130Z,98.10
2018-05-21T07:13:55.683Z,97.00
2018-05-21T07:16:23.212Z,96.40
2018-05-21T07:18:51.570Z,96.20
2018-05-21T07:21:19.082Z,96.20
2018-05-21T07:23:46.597Z,96.70
2018-05-21T07:26:14.915Z,96.20
2018-05-21T07:28:42.431Z,96.20
2018-05-21T07:31:10.693Z,95.50
2018-05-21T07:33:38.220Z,95.40
2018-05-21T07:36:05.734Z,95.80
2018-05-21T07:38:33.344Z,95.40
2018-05-21T07:41:01.628Z,95.40
2018-05-21T07:43:29.145Z,95.40
2018-05-21T07:45:56.708Z,95.20
2018-05-21T07:48:24.203Z,95.60
2018-05-21T07:50:51.832Z,94.80
2018-05-21T07:53:19.332Z,95.10
2018-05-21T07:55:47.628Z,95.60
2018-05-21T07:58:15.177Z,95.60
2018-05-21T08:00:42.701Z,95.60
2018-05-21T08:03:10.322Z,95.70
2018-05-21T08:05:37.846Z,95.40
2018-05-21T08:08:06.145Z,94.90
2018-05-21T08:10:33.661Z,94.80
2018-05-21T08:13:01.155Z,94.90
2018-05-21T08:15:28.777Z,95.40
2018-05-21T08:17:56.400Z,93.90
2018-05-21T08:20:23.929Z,94.10
2018-05-21T08:22:51.447Z,94.90
2018-05-21T08:25:18.985Z,95.00
2018-05-21T08:27:46.512Z,94.60
2018-05-21T08:30:14.019Z,95.30
2018-05-21T08:32:41.627Z,94.30
2018-05-21T08:35:09.148Z,94.20
2018-05-21T08:37:37.427Z,93.10
2018-05-21T08:40:05.800Z,93.60
2018-05-21T08:42:34.181Z,94.60
2018-05-21T08:45:01.648Z,94.50
2018-05-21T08:47:29.165Z,93.20
2018-05-21T08:49:56.768Z,93.30
2018-05-21T08:52:24.438Z,92.90
2018-05-21T08:54:51.960Z,92.60
2018-05-21T08:57:19.457Z,93.40
2018-05-21T08:59:46.999Z,93.30
2018-05-21T09:02:14.529Z,92.00
2018-05-21T09:04:42.070Z,93.30
2018-05-21T09:07:09.687Z,93.40
2018-05-21T09:09:37.216Z,90.70
2018-05-21T09:12:05.492Z,92.40
2018-05-21T09:14:33.770Z,91.40
2018-05-21T09:17:02.177Z,92.00
2018-05-21T09:19:29.733Z,91.90
2018-05-21T09:21:57.276Z,92.10
2018-05-21T09:24:24.784Z,94.70
2018-05-21T09:26:52.299Z,92.40
2018-05-21T09:29:19.821Z,92.50
2018-05-21T09:31:48.088Z,90.90
2018-05-21T09:34:15.673Z,90.90
2018-05-21T09:36:43.252Z,90.50
2018-05-21T09:39:10.782Z,89.50
2018-05-21T09:41:38.336Z,89.80
2018-05-21T09:44:06.632Z,90.00
2018-05-21T09:46:34.132Z,90.00
2018-05-21T09:49:01.639Z,90.60
2018-05-21T09:51:29.774Z,85.50
2018-05-21T09:53:57.288Z,87.50
2018-05-21T09:56:24.813Z,87.50
2018-05-21T09:58:52.392Z,83.20
2018-05-21T10:01:19.904Z,86.40
2018-05-21T10:03:47.465Z,87.00
2018-05-21T10:06:14.990Z,83.70
2018-05-21T10:08:42.630Z,85.40
2018-05-21T10:11:10.127Z,83.50
2018-05-21T10:13:37.633Z,85.00
2018-05-21T10:16:05.146Z,84.70
2018-05-21T10:18:32.679Z,84.10
2018-05-21T10:21:00.312Z,83.30
2018-05-21T10:23:27.816Z,82.00
2018-05-21T10:25:55.448Z,82.40
2018-05-21T10:28:22.963Z,80.00
2018-05-21T10:30:51.250Z,77.00
2018-05-21T10:33:18.770Z,77.00
2018-05-21T10:35:46.259Z,80.50
2018-05-21T10:38:13.789Z,77.20
2018-05-21T10:40:41.301Z,79.10
2018-05-21T10:43:08.843Z,79.50
2018-05-21T10:45:36.382Z,81.00
2018-05-21T10:48:04.678Z,82.10
2018-05-21T10:50:32.170Z,81.60
2018-05-21T10:52:59.692Z,84.20
2018-05-21T10:55:27.219Z,86.20
2018-05-21T10:57:54.847Z,85.70
2018-05-21T11:00:22.419Z,87.00
2018-05-21T11:02:49.989Z,82.70
2018-05-21T11:05:18.267Z,82.50
2018-05-21T11:07:46.538Z,84.70
2018-05-21T11:10:14.815Z,82.70
2018-05-21T11:12:43.082Z,86.40
2018-05-21T11:15:11.390Z,82.50
2018-05-21T11:17:38.934Z,82.30
2018-05-21T11:20:06.428Z,84.20
2018-05-21T11:22:33.947Z,84.90
2018-05-21T11:25:01.476Z,87.70
2018-05-21T11:27:29.809Z,85.60
2018-05-21T11:29:57.306Z,85.50
2018-05-21T11:32:24.846Z,85.20
2018-05-21T11:34:52.370Z,85.80
2018-05-21T11:37:19.925Z,87.30
2018-05-21T11:39:47.472Z,86.00
2018-05-21T11:42:15.048Z,85.10
2018-05-21T11:44:42.569Z,86.50
2018-05-21T11:47:10.905Z,87.10
2018-05-21T11:49:38.414Z,87.00
2018-05-21T11:52:06.732Z,85.00
2018-05-21T11:54:34.250Z,84.90
2018-05-21T11:57:01.772Z,86.40
2018-05-21T11:59:29.278Z,85.70
2018-05-21T12:01:56.792Z,88.50
2018-05-21T12:04:24.314Z,85.20
2018-05-21T12:06:51.874Z,90.10
2018-05-21T12:09:19.365Z,88.20
2018-05-21T12:11:46.865Z,88.10
2018-05-21T12:14:14.371Z,88.90
2018-05-21T12:16:41.920Z,87.80
2018-05-21T12:19:09.532Z,87.90
2018-05-21T12:21:37.042Z,85.50
2018-05-21T12:24:04.559Z,88.80
2018-05-21T12:26:32.060Z,86.90
2018-05-21T12:28:59.578Z,87.20
2018-05-21T12:31:27.098Z,85.90
2018-05-21T12:33:54.607Z,89.80
2018-05-21T12:36:22.144Z,89.60
2018-05-21T12:38:49.668Z,88.10
2018-05-21T12:41:17.956Z,87.30
2018-05-21T12:43:45.455Z,87.30
2018-05-21T12:46:12.982Z,84.50
2018-05-21T12:48:40.513Z,84.70
2018-05-21T12:51:08.780Z,86.80
2018-05-21T12:53:37.050Z,89.40
2018-05-21T12:56:05.331Z,88.10
2018-05-21T12:58:33.650Z,90.00
2018-05-21T13:01:01.214Z,90.00
2018-05-21T13:03:28.759Z,90.30
2018-05-21T13:05:56.270Z,88.50
2018-05-21T13:08:24.544Z,89.10
2018-05-21T13:10:52.052Z,89.00
2018-05-21T13:13:19.597Z,87.80
2018-05-21T13:15:47.102Z,87.10
2018-05-21T13:18:14.642Z,85.20
2018-05-21T13:20:42.161Z,85.20
2018-05-21T13:23:09.674Z,83.70
2018-05-21T13:25:37.203Z,85.40
2018-05-21T13:28:04.729Z,88.80
2018-05-21T13:30:32.234Z,89.90
2018-05-21T13:32:59.736Z,88.80
2018-05-21T13:35:27.254Z,90.00
2018-05-21T13:37:54.758Z,87.80
2018-05-21T13:40:22.280Z,87.20
2018-05-21T13:42:49.821Z,86.30
2018-05-21T13:45:17.316Z,87.20
2018-05-21T13:47:45.612Z,87.30
2018-05-21T13:50:13.184Z,87.30
2018-05-21T13:52:40.705Z,90.10
2018-05-21T13:55:08.279Z,88.20
2018-05-21T13:57:35.779Z,86.80
2018-05-21T14:00:03.299Z,88.60
2018-05-21T14:02:30.844Z,86.80
2018-05-21T14:04:58.422Z,86.70
2018-05-21T14:07:26.054Z,87.80
2018-05-21T14:09:53.565Z,87.20
2018-05-21T14:12:21.076Z,85.60
2018-05-21T14:14:48.632Z,84.80
2018-05-21T14:17:16.261Z,86.20
2018-05-21T14:19:43.720Z,84.60
2018-05-21T14:22:12.003Z,87.60
2018-05-21T14:24:40.278Z,86.10
2018-05-21T14:27:08.571Z,84.90
2018-05-21T14:29:36.183Z,84.80
2018-05-21T14:32:04.374Z,85.40
2018-05-21T14:34:32.682Z,85.60
2018-05-21T14:37:00.250Z,85.60
2018-05-21T14:39:27.787Z,86.60
2018-05-21T14:41:55.370Z,84.50
2018-05-21T14:44:22.906Z,86.70
2018-05-21T14:46:50.471Z,87.90
2018-05-21T14:49:17.991Z,87.00
2018-05-21T14:51:45.495Z,85.40
2018-05-21T14:54:13.035Z,86.80
2018-05-21T14:56:40.541Z,87.60
2018-05-21T14:59:08.045Z,87.10
2018-05-21T15:01:36.351Z,90.10
2018-05-21T15:04:03.958Z,90.10
2018-05-21T15:06:31.586Z,90.90
2018-05-21T15:08:59.106Z,91.20
2018-05-21T15:11:26.604Z,91.00
2018-05-21T15:13:54.129Z,90.30
2018-05-21T15:16:21.624Z,90.60
2018-05-21T15:18:49.245Z,90.70
2018-05-21T15:21:16.803Z,90.70
2018-05-21T15:23:44.362Z,90.90
2018-05-21T15:26:11.865Z,90.60
2018-05-21T15:28:39.485Z,91.30
2018-05-21T15:31:07.012Z,92.00
2018-05-21T15:33:35.288Z,92.40
2018-05-21T15:36:02.825Z,92.40
2018-05-21T15:38:31.118Z,97.10
2018-05-21T15:40:59.404Z,99.70
2018-05-21T15:43:27.017Z,99.70
2018-05-21T15:45:54.525Z,99.90
2018-05-21T15:48:22.053Z,99.90
2018-05-21T15:50:50.324Z,99.90
2018-05-21T15:53:18.615Z,99.90
2018-05-21T15:55:46.125Z,99.90
2018-05-21T15:58:13.655Z,99.90
2018-05-21T16:00:41.160Z,99.90
2018-05-21T16:03:08.692Z,99.90
2018-05-21T16:05:36.204Z,99.90
2018-05-21T16:08:03.747Z,99.90
2018-05-21T16:10:32.055Z,99.90
2018-05-21T16:12:59.564Z,99.90
2018-05-21T16:15:27.170Z,99.90
2018-05-21T16:17:54.735Z,99.90
2018-05-21T16:20:22.248Z,99.90
2018-05-21T16:22:50.528Z,99.90
2018-05-21T16:25:18.912Z,99.90
2018-05-21T16:27:47.178Z,99.90
2018-05-21T16:30:15.489Z,99.90
2018-05-21T16:32:42.978Z,99.90
2018-05-21T16:35:10.488Z,99.90
2018-05-21T16:37:38.033Z,99.90
2018-05-21T16:40:05.605Z,99.90
2018-05-21T16:42:33.113Z,99.90
2018-05-21T16:45:00.608Z,99.90
2018-05-21T16:47:28.172Z,99.90
2018-05-21T16:49:55.694Z,99.90
2018-05-21T16:52:23.298Z,99.90
2018-05-21T16:54:50.827Z,99.90
2018-05-21T16:57:18.372Z,99.90
2018-05-21T16:59:45.878Z,99.90
2018-05-21T17:02:13.406Z,99.90
2018-05-21T17:04:41.108Z,99.90
2018-05-21T17:07:08.628Z,99.90
2018-05-21T17:09:36.915Z,99.90
2018-05-21T17:12:04.414Z,99.90
2018-05-21T17:14:31.950Z,99.90
2018-05-21T17:16:59.442Z,99.90
2018-05-21T17:19:26.939Z,99.90
2018-05-21T17:21:54.446Z,99.90
2018-05-21T17:24:21.974Z,99.90
2018-05-21T17:26:49.519Z,99.90
2018-05-21T17:29:17.096Z,99.90
2018-05-21T17:31:44.601Z,99.90
2018-05-21T17:34:12.934Z,99.90
2018-05-21T17:36:40.475Z,99.90
2018-05-21T17:39:08.012Z,99.90
2018-05-21T17:41:35.794Z,99.90
2018-05-21T17:44:03.315Z,99.90
2018-05-21T17:46:31.605Z,99.90
2018-05-21T17:48:59.138Z,99.90
2018-05-21T17:51:27.451Z,99.90
2018-05-21T17:53:55.024Z,99.90
2018-05-21T17:56:22.568Z,99.90
2018-05-21T17:58:50.088Z,99.90
2018-05-21T18:01:18.356Z,99.90
2018-05-21T18:03:46.745Z,99.90
2018-05-21T18:06:14.215Z,99.90
2018-05-21T18:08:41.707Z,99.90
2018-05-21T18:11:09.262Z,99.90
2018-05-21T18:13:36.873Z,99.90
2018-05-21T18:16:05.149Z,99.90
2018-05-21T18:18:33.464Z,99.90
2018-05-21T18:21:00.986Z,99.90
2018-05-21T18:23:29.298Z,99.90
2018-05-21T18:25:56.853Z,99.90
2018-05-21T18:28:24.337Z,99.90
2018-05-21T18:30:51.962Z,99.90
2018-05-21T18:33:19.469Z,99.90
2018-05-21T18:35:47.083Z,99.90
2018-05-21T18:38:15.339Z,99.90
2018-05-21T18:40:42.862Z,99.90
2018-05-21T18:43:10.394Z,99.90
2018-05-21T18:45:37.923Z,99.90
2018-05-21T18:48:05.443Z,99.90
2018-05-21T18:50:33.759Z,99.90
2018-05-21T18:53:01.253Z,99.90
2018-05-21T18:55:28.784Z,99.90
2018-05-21T18:57:56.434Z,99.90
2018-05-21T19:00:23.962Z,99.90
2018-05-21T19:02:52.254Z,99.90
2018-05-21T19:05:19.757Z,99.90
2018-05-21T19:07:47.269Z,99.90
2018-05-21T19:10:14.815Z,99.90
2018-05-21T19:12:42.375Z,99.90
2018-05-21T19:15:09.920Z,99.90
2018-05-21T19:17:37.448Z,99.90
2018-05-21T19:20:04.997Z,99.90
2018-05-21T19:22:32.630Z,99.90
2018-05-21T19:25:01.033Z,99.90
2018-05-21T19:27:28.555Z,99.90
2018-05-21T19:29:56.086Z,99.90
2018-05-21T19:32:24.375Z,99.90
2018-05-21T19:34:51.909Z,99.90
2018-05-21T19:37:20.189Z,99.90
2018-05-21T19:39:48.497Z,99.90
2018-05-21T19:42:16.021Z,99.90
2018-05-21T19:44:44.289Z,99.90
2018-05-21T19:47:12.599Z,99.90
2018-05-21T19:49:40.109Z,99.90
2018-05-21T19:52:07.623Z,99.90
2018-05-21T19:54:35.140Z,99.90
2018-05-21T19:57:03.418Z,99.90
2018-05-21T19:59:31.704Z,99.90
2018-05-21T20:01:59.272Z,99.90
2018-05-21T20:04:26.795Z,99.90
2018-05-21T20:06:55.057Z,99.90
2018-05-21T20:09:22.558Z,99.90
2018-05-21T20:11:50.114Z,99.90
2018-05-21T20:14:17.684Z,99.90
2018-05-21T20:16:45.232Z,99.90
2018-05-21T20:19:12.835Z,99.90
2018-05-21T20:21:41.042Z,99.90
2018-05-21T20:24:09.321Z,99.90
2018-05-21T20:26:37.609Z,99.90
2018-05-21T20:29:05.188Z,99.90
2018-05-21T20:31:32.752Z,99.90
2018-05-21T20:34:00.233Z,99.90
2018-05-21T20:36:27.853Z,99.90
2018-05-21T20:38:55.338Z,99.90
2018-05-21T20:41:22.854Z,99.90
2018-05-21T20:43:50.418Z,99.90
2018-05-21T20:46:17.964Z,99.90
2018-05-21T20:48:45.508Z,99.90
2018-05-21T20:51:13.784Z,99.90
2018-05-21T20:53:42.057Z,99.90
2018-05-21T20:56:10.334Z,99.90
2018-05-21T20:58:38.633Z,99.90
2018-05-21T21:01:06.131Z,99.90
2018-05-21T21:03:33.665Z,99.90
2018-05-21T21:06:01.217Z,99.90
2018-05-21T21:08:28.756Z,99.90
2018-05-21T21:10:56.251Z,99.90
2018-05-21T21:13:23.739Z,99.90
2018-05-21T21:15:52.054Z,99.90
2018-05-21T21:18:19.582Z,99.90
2018-05-21T21:20:47.850Z,99.90
2018-05-21T21:23:16.148Z,99.90
2018-05-21T21:25:43.680Z,99.90
2018-05-21T21:28:11.942Z,99.90
2018-05-21T21:30:39.465Z,99.90
2018-05-21T21:33:06.962Z,99.90
2018-05-21T21:35:35.269Z,99.90
2018-05-21T21:38:02.835Z,99.90
2018-05-21T21:40:30.334Z,99.90
2018-05-21T21:42:57.846Z,99.90
2018-05-21T21:45:25.334Z,99.90
2018-05-21T21:47:52.956Z,99.90
2018-05-21T21:50:20.450Z,99.90
2018-05-21T21:52:47.944Z,99.90
2018-05-21T21:55:16.252Z,99.90
2018-05-21T21:57:43.806Z,99.90
2018-05-21T22:00:11.331Z,99.90
2018-05-21T22:02:39.609Z,99.90
2018-05-21T22:05:07.914Z,99.90
2018-05-21T22:07:35.456Z,99.90
2018-05-21T22:10:03.736Z,99.90
2018-05-21T22:12:31.219Z,99.90
2018-05-21T22:14:58.758Z,99.90
2018-05-21T22:17:26.280Z,99.90
2018-05-21T22:19:53.878Z,99.90
2018-05-21T22:22:21.410Z,99.90
2018-05-21T22:24:49.680Z,99.90
2018-05-21T22:27:17.951Z,99.90
2018-05-21T22:29:46.252Z,99.90
2018-05-21T22:32:13.786Z,99.90
2018-05-21T22:34:42.060Z,99.90
2018-05-21T22:37:10.340Z,99.90
2018-05-21T22:39:38.632Z,99.90
2018-05-21T22:42:06.168Z,99.90
2018-05-21T22:44:40.998Z,99.90
2018-05-21T22:47:09.267Z,99.90
2018-05-21T22:49:37.601Z,99.90
2018-05-21T22:52:05.090Z,99.90
2018-05-21T22:54:36.145Z,99.90
2018-05-21T22:57:04.430Z,99.90
2018-05-21T22:59:31.941Z,99.90
2018-05-21T23:01:59.568Z,99.90
2018-05-21T23:04:27.126Z,99.90
2018-05-21T23:06:54.624Z,99.90
2018-05-21T23:09:22.927Z,99.90
2018-05-21T23:11:51.188Z,99.90
2018-05-21T23:14:18.722Z,99.90
2018-05-21T23:16:46.239Z,99.90
2018-05-21T23:19:13.737Z,99.90
2018-05-21T23:21:41.239Z,99.90
2018-05-21T23:24:09.574Z,99.90
2018-05-21T23:26:37.183Z,99.90
2018-05-21T23:29:04.692Z,99.90
2018-05-21T23:31:32.196Z,99.90
2018-05-21T23:33:59.737Z,99.90
2018-05-21T23:36:28.008Z,99.90
2018-05-21T23:38:56.316Z,99.90
2018-05-21T23:41:23.818Z,99.90
2018-05-21T23:43:51.302Z,99.90
2018-05-21T23:46:18.842Z,99.90
2018-05-21T23:48:47.118Z,99.90
2018-05-21T23:51:15.410Z,99.90
2018-05-21T23:53:42.908Z,99.90
2018-05-21T23:56:10.406Z,99.90
2018-05-21T23:58:38.693Z,99.90
